sensor_id;sensor_type;location;lat;lon;timestamp;temperature;humidity
7341;DHT22;6870;50.944;6.932;2023-05-10T00:00:47;22.90;40.60
7341;DHT22;6870;50.944;6.932;2023-05-10T00:03:16;23.20;41.00
7341;DHT22;6870;50.944;6.932;2023-05-10T00:05:44;23.20;40.50
7341;DHT22;6870;50.944;6.932;2023-05-10T00:08:12;23.20;40.70
7341;DHT22;6870;50.944;6.932;2023-05-10T00:10:40;23.30;40.90
7341;DHT22;6870;50.944;6.932;2023-05-10T00:13:08;23.20;40.40
7341;DHT22;6870;50.944;6.932;2023-05-10T00:15:36;23.30;40.70
7341;DHT22;6870;50.944;6.932;2023-05-10T00:18:04;22.80;40.20
7341;DHT22;6870;50.944;6.932;2023-05-10T00:20:34;23.10;41.00
7341;DHT22;6870;50.944;6.932;2023-05-10T00:23:02;23.00;40.90
7341;DHT22;6870;50.944;6.932;2023-05-10T00:25:30;23.10;40.60
7341;DHT22;6870;50.944;6.932;2023-05-10T00:27:58;23.00;40.70
7341;DHT22;6870;50.944;6.932;2023-05-10T00:30:27;22.90;40.60
7341;DHT22;6870;50.944;6.932;2023-05-10T00:32:55;23.20;40.70
7341;DHT22;6870;50.944;6.932;2023-05-10T00:35:24;23.00;41.10
7341;DHT22;6870;50.944;6.932;2023-05-10T00:37:54;23.20;41.60
7341;DHT22;6870;50.944;6.932;2023-05-10T00:40:22;23.20;42.30
7341;DHT22;6870;50.944;6.932;2023-05-10T00:42:51;23.20;41.80
7341;DHT22;6870;50.944;6.932;2023-05-10T00:45:19;23.10;41.30
7341;DHT22;6870;50.944;6.932;2023-05-10T00:47:47;23.20;41.60
7341;DHT22;6870;50.944;6.932;2023-05-10T00:50:15;23.20;41.10
7341;DHT22;6870;50.944;6.932;2023-05-10T00:52:44;23.10;41.50
7341;DHT22;6870;50.944;6.932;2023-05-10T00:55:13;23.00;41.10
7341;DHT22;6870;50.944;6.932;2023-05-10T00:57:42;22.80;41.00
7341;DHT22;6870;50.944;6.932;2023-05-10T01:00:11;22.90;41.30
7341;DHT22;6870;50.944;6.932;2023-05-10T01:02:44;23.20;42.10
7341;DHT22;6870;50.944;6.932;2023-05-10T01:05:13;23.10;41.90
7341;DHT22;6870;50.944;6.932;2023-05-10T01:07:41;22.80;41.80
7341;DHT22;6870;50.944;6.932;2023-05-10T01:10:10;23.00;41.20
7341;DHT22;6870;50.944;6.932;2023-05-10T01:12:41;22.70;41.20
7341;DHT22;6870;50.944;6.932;2023-05-10T01:15:11;23.10;42.10
7341;DHT22;6870;50.944;6.932;2023-05-10T01:17:41;22.90;42.00
7341;DHT22;6870;50.944;6.932;2023-05-10T01:20:11;23.10;42.10
7341;DHT22;6870;50.944;6.932;2023-05-10T01:22:55;23.10;42.20
7341;DHT22;6870;50.944;6.932;2023-05-10T01:26:18;22.80;41.90
7341;DHT22;6870;50.944;6.932;2023-05-10T01:29:16;22.80;41.90
7341;DHT22;6870;50.944;6.932;2023-05-10T01:32:14;22.60;41.70
7341;DHT22;6870;50.944;6.932;2023-05-10T01:34:50;23.20;42.30
7341;DHT22;6870;50.944;6.932;2023-05-10T01:37:29;22.60;41.70
7341;DHT22;6870;50.944;6.932;2023-05-10T01:40:08;22.90;42.10
7341;DHT22;6870;50.944;6.932;2023-05-10T01:42:47;23.00;42.20
7341;DHT22;6870;50.944;6.932;2023-05-10T01:45:24;22.70;41.90
7341;DHT22;6870;50.944;6.932;2023-05-10T01:48:04;23.00;42.30
7341;DHT22;6870;50.944;6.932;2023-05-10T01:50:36;22.80;41.70
7341;DHT22;6870;50.944;6.932;2023-05-10T01:53:07;23.10;42.60
7341;DHT22;6870;50.944;6.932;2023-05-10T01:55:40;22.70;41.50
7341;DHT22;6870;50.944;6.932;2023-05-10T01:58:14;22.80;41.60
7341;DHT22;6870;50.944;6.932;2023-05-10T02:00:46;23.10;42.40
7341;DHT22;6870;50.944;6.932;2023-05-10T02:03:18;22.80;42.30
7341;DHT22;6870;50.944;6.932;2023-05-10T02:05:49;22.80;42.40
7341;DHT22;6870;50.944;6.932;2023-05-10T02:08:19;22.90;42.30
7341;DHT22;6870;50.944;6.932;2023-05-10T02:10:50;22.80;41.70
7341;DHT22;6870;50.944;6.932;2023-05-10T02:13:21;23.10;42.10
7341;DHT22;6870;50.944;6.932;2023-05-10T02:15:52;22.60;42.30
7341;DHT22;6870;50.944;6.932;2023-05-10T02:18:23;23.00;42.20
7341;DHT22;6870;50.944;6.932;2023-05-10T02:20:54;22.70;42.10
7341;DHT22;6870;50.944;6.932;2023-05-10T02:23:24;22.60;41.80
7341;DHT22;6870;50.944;6.932;2023-05-10T02:25:54;22.70;42.50
7341;DHT22;6870;50.944;6.932;2023-05-10T02:28:23;22.90;42.20
7341;DHT22;6870;50.944;6.932;2023-05-10T02:30:53;22.90;42.70
7341;DHT22;6870;50.944;6.932;2023-05-10T02:33:24;22.60;42.00
7341;DHT22;6870;50.944;6.932;2023-05-10T02:35:53;22.70;42.50
7341;DHT22;6870;50.944;6.932;2023-05-10T02:38:23;22.90;42.30
7341;DHT22;6870;50.944;6.932;2023-05-10T02:40:53;22.70;42.10
7341;DHT22;6870;50.944;6.932;2023-05-10T02:43:23;23.00;42.90
7341;DHT22;6870;50.944;6.932;2023-05-10T02:45:52;22.60;42.10
7341;DHT22;6870;50.944;6.932;2023-05-10T02:48:20;22.80;42.20
7341;DHT22;6870;50.944;6.932;2023-05-10T02:50:52;22.90;42.20
7341;DHT22;6870;50.944;6.932;2023-05-10T02:53:23;23.10;43.10
7341;DHT22;6870;50.944;6.932;2023-05-10T02:56:00;22.50;42.40
7341;DHT22;6870;50.944;6.932;2023-05-10T02:58:30;23.10;43.10
7341;DHT22;6870;50.944;6.932;2023-05-10T03:00:59;22.70;42.20
7341;DHT22;6870;50.944;6.932;2023-05-10T03:03:29;22.50;42.50
7341;DHT22;6870;50.944;6.932;2023-05-10T03:05:57;22.90;42.40
7341;DHT22;6870;50.944;6.932;2023-05-10T03:08:26;22.70;42.30
7341;DHT22;6870;50.944;6.932;2023-05-10T03:11:10;23.00;42.60
7341;DHT22;6870;50.944;6.932;2023-05-10T03:13:52;22.70;42.70
7341;DHT22;6870;50.944;6.932;2023-05-10T03:16:28;22.60;42.20
7341;DHT22;6870;50.944;6.932;2023-05-10T03:19:11;22.90;42.50
7341;DHT22;6870;50.944;6.932;2023-05-10T03:21:47;22.70;42.90
7341;DHT22;6870;50.944;6.932;2023-05-10T03:24:20;22.80;43.20
7341;DHT22;6870;50.944;6.932;2023-05-10T03:26:52;22.60;42.90
7341;DHT22;6870;50.944;6.932;2023-05-10T03:29:22;22.80;42.60
7341;DHT22;6870;50.944;6.932;2023-05-10T03:31:50;22.70;43.20
7341;DHT22;6870;50.944;6.932;2023-05-10T03:34:24;22.80;42.80
7341;DHT22;6870;50.944;6.932;2023-05-10T03:36:54;22.80;42.80
7341;DHT22;6870;50.944;6.932;2023-05-10T03:39:22;23.10;43.60
7341;DHT22;6870;50.944;6.932;2023-05-10T03:41:51;22.80;42.70
7341;DHT22;6870;50.944;6.932;2023-05-10T03:44:19;22.50;42.50
7341;DHT22;6870;50.944;6.932;2023-05-10T03:46:47;23.10;43.00
7341;DHT22;6870;50.944;6.932;2023-05-10T03:49:16;22.70;42.70
7341;DHT22;6870;50.944;6.932;2023-05-10T03:51:45;22.90;43.20
7341;DHT22;6870;50.944;6.932;2023-05-10T03:54:13;22.70;43.00
7341;DHT22;6870;50.944;6.932;2023-05-10T03:56:41;22.90;42.90
7341;DHT22;6870;50.944;6.932;2023-05-10T03:59:09;22.80;42.90
7341;DHT22;6870;50.944;6.932;2023-05-10T04:01:37;22.70;42.80
7341;DHT22;6870;50.944;6.932;2023-05-10T04:04:06;22.50;42.70
7341;DHT22;6870;50.944;6.932;2023-05-10T04:06:34;22.70;42.90
7341;DHT22;6870;50.944;6.932;2023-05-10T04:09:04;22.60;42.70
7341;DHT22;6870;50.944;6.932;2023-05-10T04:11:32;22.50;42.60
7341;DHT22;6870;50.944;6.932;2023-05-10T04:14:04;22.70;42.80
7341;DHT22;6870;50.944;6.932;2023-05-10T04:16:32;22.50;42.70
7341;DHT22;6870;50.944;6.932;2023-05-10T04:19:00;22.50;42.90
7341;DHT22;6870;50.944;6.932;2023-05-10T04:21:29;22.90;43.30
7341;DHT22;6870;50.944;6.932;2023-05-10T04:23:57;22.80;43.00
7341;DHT22;6870;50.944;6.932;2023-05-10T04:26:26;22.50;42.80
7341;DHT22;6870;50.944;6.932;2023-05-10T04:28:54;22.80;42.50
7341;DHT22;6870;50.944;6.932;2023-05-10T04:31:22;22.50;41.70
7341;DHT22;6870;50.944;6.932;2023-05-10T04:33:50;22.70;41.40
7341;DHT22;6870;50.944;6.932;2023-05-10T04:36:18;22.60;40.60
7341;DHT22;6870;50.944;6.932;2023-05-10T04:38:46;22.70;41.50
7341;DHT22;6870;50.944;6.932;2023-05-10T04:41:15;23.10;41.40
7341;DHT22;6870;50.944;6.932;2023-05-10T04:43:44;22.80;41.70
7341;DHT22;6870;50.944;6.932;2023-05-10T04:46:12;23.20;41.60
7341;DHT22;6870;50.944;6.932;2023-05-10T04:48:40;23.00;41.60
7341;DHT22;6870;50.944;6.932;2023-05-10T04:51:08;22.70;40.90
7341;DHT22;6870;50.944;6.932;2023-05-10T04:53:36;22.50;40.30
7341;DHT22;6870;50.944;6.932;2023-05-10T04:56:05;22.50;39.70
7341;DHT22;6870;50.944;6.932;2023-05-10T04:58:33;23.00;40.50
7341;DHT22;6870;50.944;6.932;2023-05-10T05:01:06;22.70;40.10
7341;DHT22;6870;50.944;6.932;2023-05-10T05:03:35;23.00;39.40
7341;DHT22;6870;50.944;6.932;2023-05-10T05:06:03;22.60;39.70
7341;DHT22;6870;50.944;6.932;2023-05-10T05:08:31;23.00;39.60
7341;DHT22;6870;50.944;6.932;2023-05-10T05:10:59;22.60;39.10
7341;DHT22;6870;50.944;6.932;2023-05-10T05:13:27;22.60;39.00
7341;DHT22;6870;50.944;6.932;2023-05-10T05:15:56;23.10;39.10
7341;DHT22;6870;50.944;6.932;2023-05-10T05:18:25;23.10;38.70
7341;DHT22;6870;50.944;6.932;2023-05-10T05:20:53;22.50;38.20
7341;DHT22;6870;50.944;6.932;2023-05-10T05:23:21;22.90;37.90
7341;DHT22;6870;50.944;6.932;2023-05-10T05:25:51;22.60;38.30
7341;DHT22;6870;50.944;6.932;2023-05-10T05:28:20;22.60;38.60
7341;DHT22;6870;50.944;6.932;2023-05-10T05:30:48;22.60;38.40
7341;DHT22;6870;50.944;6.932;2023-05-10T05:33:16;22.50;38.30
7341;DHT22;6870;50.944;6.932;2023-05-10T05:35:45;22.40;38.10
7341;DHT22;6870;50.944;6.932;2023-05-10T05:38:17;22.90;38.20
7341;DHT22;6870;50.944;6.932;2023-05-10T05:40:45;22.50;38.20
7341;DHT22;6870;50.944;6.932;2023-05-10T05:43:13;22.60;38.10
7341;DHT22;6870;50.944;6.932;2023-05-10T05:45:41;22.30;38.00
7341;DHT22;6870;50.944;6.932;2023-05-10T05:48:09;22.40;37.80
7341;DHT22;6870;50.944;6.932;2023-05-10T05:50:37;22.80;38.00
7341;DHT22;6870;50.944;6.932;2023-05-10T05:53:07;22.60;38.00
7341;DHT22;6870;50.944;6.932;2023-05-10T05:55:35;22.40;37.70
7341;DHT22;6870;50.944;6.932;2023-05-10T05:58:03;22.40;37.50
7341;DHT22;6870;50.944;6.932;2023-05-10T06:00:31;22.30;36.50
7341;DHT22;6870;50.944;6.932;2023-05-10T06:02:59;22.60;37.70
7341;DHT22;6870;50.944;6.932;2023-05-10T06:05:28;22.70;38.40
7341;DHT22;6870;50.944;6.932;2023-05-10T06:07:55;22.70;37.20
7341;DHT22;6870;50.944;6.932;2023-05-10T06:10:25;23.00;38.10
7341;DHT22;6870;50.944;6.932;2023-05-10T06:12:53;22.60;38.10
7341;DHT22;6870;50.944;6.932;2023-05-10T06:15:21;22.60;38.10
7341;DHT22;6870;50.944;6.932;2023-05-10T06:17:49;22.60;38.20
7341;DHT22;6870;50.944;6.932;2023-05-10T06:20:17;22.60;38.00
7341;DHT22;6870;50.944;6.932;2023-05-10T06:22:46;22.80;38.30
7341;DHT22;6870;50.944;6.932;2023-05-10T06:25:13;22.50;38.00
7341;DHT22;6870;50.944;6.932;2023-05-10T06:27:46;22.60;38.20
7341;DHT22;6870;50.944;6.932;2023-05-10T06:30:18;22.60;38.20
7341;DHT22;6870;50.944;6.932;2023-05-10T06:32:49;22.60;38.30
7341;DHT22;6870;50.944;6.932;2023-05-10T06:35:18;22.50;38.10
7341;DHT22;6870;50.944;6.932;2023-05-10T06:37:46;22.70;38.20
7341;DHT22;6870;50.944;6.932;2023-05-10T06:40:14;22.40;38.00
7341;DHT22;6870;50.944;6.932;2023-05-10T06:42:43;22.60;38.00
7341;DHT22;6870;50.944;6.932;2023-05-10T06:45:14;22.40;37.40
7341;DHT22;6870;50.944;6.932;2023-05-10T06:47:43;22.40;37.60
7341;DHT22;6870;50.944;6.932;2023-05-10T06:50:12;22.50;38.20
7341;DHT22;6870;50.944;6.932;2023-05-10T06:52:40;22.40;37.80
7341;DHT22;6870;50.944;6.932;2023-05-10T06:55:10;22.40;37.80
7341;DHT22;6870;50.944;6.932;2023-05-10T06:57:38;22.50;37.90
7341;DHT22;6870;50.944;6.932;2023-05-10T07:00:07;22.60;38.10
7341;DHT22;6870;50.944;6.932;2023-05-10T07:02:37;22.30;38.60
7341;DHT22;6870;50.944;6.932;2023-05-10T07:05:06;22.40;37.80
7341;DHT22;6870;50.944;6.932;2023-05-10T07:07:34;22.20;37.80
7341;DHT22;6870;50.944;6.932;2023-05-10T07:10:03;22.40;37.80
7341;DHT22;6870;50.944;6.932;2023-05-10T07:12:31;22.40;38.00
7341;DHT22;6870;50.944;6.932;2023-05-10T07:14:59;22.80;38.40
7341;DHT22;6870;50.944;6.932;2023-05-10T07:17:27;22.30;37.70
7341;DHT22;6870;50.944;6.932;2023-05-10T07:19:57;22.30;37.50
7341;DHT22;6870;50.944;6.932;2023-05-10T07:22:25;22.70;37.70
7341;DHT22;6870;50.944;6.932;2023-05-10T07:24:53;22.90;37.50
7341;DHT22;6870;50.944;6.932;2023-05-10T07:27:22;22.60;37.20
7341;DHT22;6870;50.944;6.932;2023-05-10T07:29:50;22.70;37.40
7341;DHT22;6870;50.944;6.932;2023-05-10T07:32:18;22.60;37.00
7341;DHT22;6870;50.944;6.932;2023-05-10T07:34:46;22.60;37.40
7341;DHT22;6870;50.944;6.932;2023-05-10T07:37:15;22.40;37.00
7341;DHT22;6870;50.944;6.932;2023-05-10T07:39:43;22.90;37.90
7341;DHT22;6870;50.944;6.932;2023-05-10T07:42:11;22.60;37.50
7341;DHT22;6870;50.944;6.932;2023-05-10T07:44:39;22.60;38.00
7341;DHT22;6870;50.944;6.932;2023-05-10T07:47:08;22.70;37.50
7341;DHT22;6870;50.944;6.932;2023-05-10T07:49:36;22.50;37.20
7341;DHT22;6870;50.944;6.932;2023-05-10T07:52:04;22.50;37.00
7341;DHT22;6870;50.944;6.932;2023-05-10T07:54:34;22.80;37.10
7341;DHT22;6870;50.944;6.932;2023-05-10T07:57:02;22.80;36.90
7341;DHT22;6870;50.944;6.932;2023-05-10T07:59:30;23.30;37.30
7341;DHT22;6870;50.944;6.932;2023-05-10T08:01:58;23.20;37.00
7341;DHT22;6870;50.944;6.932;2023-05-10T08:04:27;22.70;36.40
7341;DHT22;6870;50.944;6.932;2023-05-10T08:06:55;23.20;37.00
7341;DHT22;6870;50.944;6.932;2023-05-10T08:09:23;23.10;36.40
7341;DHT22;6870;50.944;6.932;2023-05-10T08:11:52;23.10;36.00
7341;DHT22;6870;50.944;6.932;2023-05-10T08:14:20;23.20;36.60
7341;DHT22;6870;50.944;6.932;2023-05-10T08:16:48;23.20;36.50
7341;DHT22;6870;50.944;6.932;2023-05-10T08:19:16;23.10;35.50
7341;DHT22;6870;50.944;6.932;2023-05-10T08:21:46;23.30;36.60
7341;DHT22;6870;50.944;6.932;2023-05-10T08:24:14;23.20;35.90
7341;DHT22;6870;50.944;6.932;2023-05-10T08:26:42;23.20;36.40
7341;DHT22;6870;50.944;6.932;2023-05-10T08:29:11;23.20;36.50
7341;DHT22;6870;50.944;6.932;2023-05-10T08:31:39;23.10;36.30
7341;DHT22;6870;50.944;6.932;2023-05-10T08:34:07;23.30;36.50
7341;DHT22;6870;50.944;6.932;2023-05-10T08:36:35;23.30;36.50
7341;DHT22;6870;50.944;6.932;2023-05-10T08:39:03;23.40;36.50
7341;DHT22;6870;50.944;6.932;2023-05-10T08:41:44;23.10;36.10
7341;DHT22;6870;50.944;6.932;2023-05-10T08:44:13;23.30;36.10
7341;DHT22;6870;50.944;6.932;2023-05-10T08:46:46;23.20;36.10
7341;DHT22;6870;50.944;6.932;2023-05-10T08:49:17;23.20;36.10
7341;DHT22;6870;50.944;6.932;2023-05-10T08:51:50;23.20;34.90
7341;DHT22;6870;50.944;6.932;2023-05-10T08:54:19;23.30;35.60
7341;DHT22;6870;50.944;6.932;2023-05-10T08:56:49;23.20;35.50
7341;DHT22;6870;50.944;6.932;2023-05-10T08:59:18;23.20;35.30
7341;DHT22;6870;50.944;6.932;2023-05-10T09:01:47;23.30;35.30
7341;DHT22;6870;50.944;6.932;2023-05-10T09:04:16;23.50;36.20
7341;DHT22;6870;50.944;6.932;2023-05-10T09:06:44;23.30;35.00
7341;DHT22;6870;50.944;6.932;2023-05-10T09:09:12;23.50;34.70
7341;DHT22;6870;50.944;6.932;2023-05-10T09:11:41;23.40;34.90
7341;DHT22;6870;50.944;6.932;2023-05-10T09:14:09;23.30;34.60
7341;DHT22;6870;50.944;6.932;2023-05-10T09:16:40;23.50;34.60
7341;DHT22;6870;50.944;6.932;2023-05-10T09:19:09;23.50;34.60
7341;DHT22;6870;50.944;6.932;2023-05-10T09:21:37;23.30;34.50
7341;DHT22;6870;50.944;6.932;2023-05-10T09:24:06;23.60;34.80
7341;DHT22;6870;50.944;6.932;2023-05-10T09:26:35;23.50;34.50
7341;DHT22;6870;50.944;6.932;2023-05-10T09:29:14;23.40;34.50
7341;DHT22;6870;50.944;6.932;2023-05-10T09:31:47;23.60;34.40
7341;DHT22;6870;50.944;6.932;2023-05-10T09:34:19;23.50;33.90
7341;DHT22;6870;50.944;6.932;2023-05-10T09:36:52;23.60;34.20
7341;DHT22;6870;50.944;6.932;2023-05-10T09:39:21;23.50;35.00
7341;DHT22;6870;50.944;6.932;2023-05-10T09:41:58;23.50;34.20
7341;DHT22;6870;50.944;6.932;2023-05-10T09:44:27;23.40;34.60
7341;DHT22;6870;50.944;6.932;2023-05-10T09:46:56;23.50;34.60
7341;DHT22;6870;50.944;6.932;2023-05-10T09:49:25;23.70;34.80
7341;DHT22;6870;50.944;6.932;2023-05-10T09:52:03;23.30;34.50
7341;DHT22;6870;50.944;6.932;2023-05-10T09:54:33;23.40;34.30
7341;DHT22;6870;50.944;6.932;2023-05-10T09:57:01;23.30;34.50
7341;DHT22;6870;50.944;6.932;2023-05-10T09:59:29;23.10;34.10
7341;DHT22;6870;50.944;6.932;2023-05-10T10:02:02;23.30;34.00
7341;DHT22;6870;50.944;6.932;2023-05-10T10:04:30;23.20;33.50
7341;DHT22;6870;50.944;6.932;2023-05-10T10:07:03;23.60;33.50
7341;DHT22;6870;50.944;6.932;2023-05-10T10:09:33;23.50;33.00
7341;DHT22;6870;50.944;6.932;2023-05-10T10:12:02;23.50;32.10
7341;DHT22;6870;50.944;6.932;2023-05-10T10:14:31;23.60;32.50
7341;DHT22;6870;50.944;6.932;2023-05-10T10:17:01;23.50;32.50
7341;DHT22;6870;50.944;6.932;2023-05-10T10:19:34;23.80;32.40
7341;DHT22;6870;50.944;6.932;2023-05-10T10:22:04;23.70;32.70
7341;DHT22;6870;50.944;6.932;2023-05-10T10:24:33;23.60;31.40
7341;DHT22;6870;50.944;6.932;2023-05-10T10:27:09;24.10;31.50
7341;DHT22;6870;50.944;6.932;2023-05-10T10:29:49;23.80;31.70
7341;DHT22;6870;50.944;6.932;2023-05-10T10:32:29;23.80;31.60
7341;DHT22;6870;50.944;6.932;2023-05-10T10:35:03;23.80;31.10
7341;DHT22;6870;50.944;6.932;2023-05-10T10:37:43;23.90;30.90
7341;DHT22;6870;50.944;6.932;2023-05-10T10:40:26;23.90;31.60
7341;DHT22;6870;50.944;6.932;2023-05-10T10:42:57;23.70;30.20
7341;DHT22;6870;50.944;6.932;2023-05-10T10:45:25;23.80;30.20
7341;DHT22;6870;50.944;6.932;2023-05-10T10:48:21;24.00;29.90
7341;DHT22;6870;50.944;6.932;2023-05-10T10:50:56;24.10;30.20
7341;DHT22;6870;50.944;6.932;2023-05-10T10:53:26;24.20;30.30
7341;DHT22;6870;50.944;6.932;2023-05-10T10:56:05;23.70;30.00
7341;DHT22;6870;50.944;6.932;2023-05-10T10:58:36;23.80;29.80
7341;DHT22;6870;50.944;6.932;2023-05-10T11:01:13;24.10;29.90
7341;DHT22;6870;50.944;6.932;2023-05-10T11:04:18;23.80;29.40
7341;DHT22;6870;50.944;6.932;2023-05-10T11:06:47;23.90;29.50
7341;DHT22;6870;50.944;6.932;2023-05-10T11:09:15;23.90;29.40
7341;DHT22;6870;50.944;6.932;2023-05-10T11:11:54;24.10;29.30
7341;DHT22;6870;50.944;6.932;2023-05-10T11:14:22;24.00;29.60
7341;DHT22;6870;50.944;6.932;2023-05-10T11:16:50;23.90;29.50
7341;DHT22;6870;50.944;6.932;2023-05-10T11:19:20;23.90;29.70
7341;DHT22;6870;50.944;6.932;2023-05-10T11:21:49;23.70;29.50
7341;DHT22;6870;50.944;6.932;2023-05-10T11:24:21;23.90;29.50
7341;DHT22;6870;50.944;6.932;2023-05-10T11:26:50;23.80;29.80
7341;DHT22;6870;50.944;6.932;2023-05-10T11:29:19;24.00;29.30
7341;DHT22;6870;50.944;6.932;2023-05-10T11:31:47;23.70;29.10
7341;DHT22;6870;50.944;6.932;2023-05-10T11:34:28;23.80;29.40
7341;DHT22;6870;50.944;6.932;2023-05-10T11:36:57;23.80;30.10
7341;DHT22;6870;50.944;6.932;2023-05-10T11:39:26;24.30;29.80
7341;DHT22;6870;50.944;6.932;2023-05-10T11:41:55;23.80;28.90
7341;DHT22;6870;50.944;6.932;2023-05-10T11:44:24;23.90;29.60
7341;DHT22;6870;50.944;6.932;2023-05-10T11:46:58;23.80;29.20
7341;DHT22;6870;50.944;6.932;2023-05-10T11:49:28;23.80;29.30
7341;DHT22;6870;50.944;6.932;2023-05-10T11:52:04;23.90;29.30
7341;DHT22;6870;50.944;6.932;2023-05-10T11:54:32;23.80;28.70
7341;DHT22;6870;50.944;6.932;2023-05-10T11:57:01;23.80;28.80
7341;DHT22;6870;50.944;6.932;2023-05-10T11:59:30;23.90;28.60
7341;DHT22;6870;50.944;6.932;2023-05-10T12:01:58;23.80;28.20
7341;DHT22;6870;50.944;6.932;2023-05-10T12:04:27;23.90;28.60
7341;DHT22;6870;50.944;6.932;2023-05-10T12:06:56;23.80;29.00
7341;DHT22;6870;50.944;6.932;2023-05-10T12:09:24;24.00;28.40
7341;DHT22;6870;50.944;6.932;2023-05-10T12:12:08;23.80;28.00
7341;DHT22;6870;50.944;6.932;2023-05-10T12:14:36;23.80;27.90
7341;DHT22;6870;50.944;6.932;2023-05-10T12:17:04;23.70;28.10
7341;DHT22;6870;50.944;6.932;2023-05-10T12:19:38;23.90;28.30
7341;DHT22;6870;50.944;6.932;2023-05-10T12:22:06;23.80;28.50
7341;DHT22;6870;50.944;6.932;2023-05-10T12:24:35;24.00;28.20
7341;DHT22;6870;50.944;6.932;2023-05-10T12:27:05;23.90;27.80
7341;DHT22;6870;50.944;6.932;2023-05-10T12:29:34;23.80;27.70
7341;DHT22;6870;50.944;6.932;2023-05-10T12:32:02;23.80;27.80
7341;DHT22;6870;50.944;6.932;2023-05-10T12:34:32;23.90;27.90
7341;DHT22;6870;50.944;6.932;2023-05-10T12:37:03;24.00;28.10
7341;DHT22;6870;50.944;6.932;2023-05-10T12:39:39;24.10;27.90
7341;DHT22;6870;50.944;6.932;2023-05-10T12:42:08;24.00;27.50
7341;DHT22;6870;50.944;6.932;2023-05-10T12:44:36;24.20;27.50
7341;DHT22;6870;50.944;6.932;2023-05-10T12:47:04;24.40;27.60
7341;DHT22;6870;50.944;6.932;2023-05-10T12:49:33;24.10;27.90
7341;DHT22;6870;50.944;6.932;2023-05-10T12:52:03;24.20;27.40
7341;DHT22;6870;50.944;6.932;2023-05-10T12:54:31;24.10;26.70
7341;DHT22;6870;50.944;6.932;2023-05-10T12:56:59;24.10;27.00
7341;DHT22;6870;50.944;6.932;2023-05-10T12:59:26;24.30;26.70
7341;DHT22;6870;50.944;6.932;2023-05-10T13:01:55;24.50;26.40
7341;DHT22;6870;50.944;6.932;2023-05-10T13:04:23;24.00;26.70
7341;DHT22;6870;50.944;6.932;2023-05-10T13:06:51;24.30;26.50
7341;DHT22;6870;50.944;6.932;2023-05-10T13:09:20;24.50;26.50
7341;DHT22;6870;50.944;6.932;2023-05-10T13:11:49;24.30;26.10
7341;DHT22;6870;50.944;6.932;2023-05-10T13:14:17;24.40;26.40
7341;DHT22;6870;50.944;6.932;2023-05-10T13:16:47;24.30;25.70
7341;DHT22;6870;50.944;6.932;2023-05-10T13:19:16;24.20;25.70
7341;DHT22;6870;50.944;6.932;2023-05-10T13:21:44;24.30;26.80
7341;DHT22;6870;50.944;6.932;2023-05-10T13:24:13;24.60;27.00
7341;DHT22;6870;50.944;6.932;2023-05-10T13:26:42;24.50;27.20
7341;DHT22;6870;50.944;6.932;2023-05-10T13:29:10;24.50;26.60
7341;DHT22;6870;50.944;6.932;2023-05-10T13:31:38;24.60;26.80
7341;DHT22;6870;50.944;6.932;2023-05-10T13:34:07;24.40;26.90
7341;DHT22;6870;50.944;6.932;2023-05-10T13:36:35;24.50;26.30
7341;DHT22;6870;50.944;6.932;2023-05-10T13:39:03;24.30;25.80
7341;DHT22;6870;50.944;6.932;2023-05-10T13:41:31;24.50;26.20
7341;DHT22;6870;50.944;6.932;2023-05-10T13:44:01;24.50;26.40
7341;DHT22;6870;50.944;6.932;2023-05-10T13:46:29;24.30;25.50
7341;DHT22;6870;50.944;6.932;2023-05-10T13:48:57;24.50;25.90
7341;DHT22;6870;50.944;6.932;2023-05-10T13:51:26;24.60;26.60
7341;DHT22;6870;50.944;6.932;2023-05-10T13:53:54;24.50;26.30
7341;DHT22;6870;50.944;6.932;2023-05-10T13:56:22;24.50;26.40
7341;DHT22;6870;50.944;6.932;2023-05-10T13:58:50;24.50;26.20
7341;DHT22;6870;50.944;6.932;2023-05-10T14:01:19;24.50;26.40
7341;DHT22;6870;50.944;6.932;2023-05-10T14:03:47;24.60;26.50
7341;DHT22;6870;50.944;6.932;2023-05-10T14:06:15;24.40;26.90
7341;DHT22;6870;50.944;6.932;2023-05-10T14:08:43;24.30;26.40
7341;DHT22;6870;50.944;6.932;2023-05-10T14:11:12;24.90;27.30
7341;DHT22;6870;50.944;6.932;2023-05-10T14:13:40;24.70;26.90
7341;DHT22;6870;50.944;6.932;2023-05-10T14:16:08;24.60;26.50
7341;DHT22;6870;50.944;6.932;2023-05-10T14:18:37;24.60;26.70
7341;DHT22;6870;50.944;6.932;2023-05-10T14:21:06;24.30;26.60
7341;DHT22;6870;50.944;6.932;2023-05-10T14:23:34;24.60;27.50
7341;DHT22;6870;50.944;6.932;2023-05-10T14:26:01;24.70;27.40
7341;DHT22;6870;50.944;6.932;2023-05-10T14:28:30;24.30;26.40
7341;DHT22;6870;50.944;6.932;2023-05-10T14:30:58;24.60;26.70
7341;DHT22;6870;50.944;6.932;2023-05-10T14:33:26;24.40;26.20
7341;DHT22;6870;50.944;6.932;2023-05-10T14:35:56;24.50;25.20
7341;DHT22;6870;50.944;6.932;2023-05-10T14:38:24;24.40;24.80
7341;DHT22;6870;50.944;6.932;2023-05-10T14:40:53;24.70;25.80
7341;DHT22;6870;50.944;6.932;2023-05-10T14:43:21;24.50;25.40
7341;DHT22;6870;50.944;6.932;2023-05-10T14:45:49;24.30;25.50
7341;DHT22;6870;50.944;6.932;2023-05-10T14:48:17;24.70;26.00
7341;DHT22;6870;50.944;6.932;2023-05-10T14:50:45;24.50;25.50
7341;DHT22;6870;50.944;6.932;2023-05-10T14:53:14;24.30;25.80
7341;DHT22;6870;50.944;6.932;2023-05-10T14:55:42;24.30;26.30
7341;DHT22;6870;50.944;6.932;2023-05-10T14:58:10;24.60;25.80
7341;DHT22;6870;50.944;6.932;2023-05-10T15:00:38;24.20;25.60
7341;DHT22;6870;50.944;6.932;2023-05-10T15:03:07;24.20;25.80
7341;DHT22;6870;50.944;6.932;2023-05-10T15:05:35;24.70;26.20
7341;DHT22;6870;50.944;6.932;2023-05-10T15:08:04;24.70;26.50
7341;DHT22;6870;50.944;6.932;2023-05-10T15:10:34;24.60;25.70
7341;DHT22;6870;50.944;6.932;2023-05-10T15:13:04;24.60;25.50
7341;DHT22;6870;50.944;6.932;2023-05-10T15:15:32;24.30;26.30
7341;DHT22;6870;50.944;6.932;2023-05-10T15:18:00;24.50;26.50
7341;DHT22;6870;50.944;6.932;2023-05-10T15:20:28;24.50;26.90
7341;DHT22;6870;50.944;6.932;2023-05-10T15:22:56;24.20;26.00
7341;DHT22;6870;50.944;6.932;2023-05-10T15:25:24;24.10;26.00
7341;DHT22;6870;50.944;6.932;2023-05-10T15:27:53;24.30;27.20
7341;DHT22;6870;50.944;6.932;2023-05-10T15:30:22;24.20;27.40
7341;DHT22;6870;50.944;6.932;2023-05-10T15:32:50;24.10;26.50
7341;DHT22;6870;50.944;6.932;2023-05-10T15:35:18;24.40;26.40
7341;DHT22;6870;50.944;6.932;2023-05-10T15:37:47;24.50;26.40
7341;DHT22;6870;50.944;6.932;2023-05-10T15:40:15;24.10;26.20
7341;DHT22;6870;50.944;6.932;2023-05-10T15:42:44;24.10;26.40
7341;DHT22;6870;50.944;6.932;2023-05-10T15:45:13;24.40;26.50
7341;DHT22;6870;50.944;6.932;2023-05-10T15:47:42;24.10;25.90
7341;DHT22;6870;50.944;6.932;2023-05-10T15:50:10;24.40;26.00
7341;DHT22;6870;50.944;6.932;2023-05-10T15:52:38;24.20;26.20
7341;DHT22;6870;50.944;6.932;2023-05-10T15:55:08;24.50;25.70
7341;DHT22;6870;50.944;6.932;2023-05-10T15:57:39;24.50;26.00
7341;DHT22;6870;50.944;6.932;2023-05-10T16:00:09;24.60;26.30
7341;DHT22;6870;50.944;6.932;2023-05-10T16:02:39;24.50;26.20
7341;DHT22;6870;50.944;6.932;2023-05-10T16:05:09;24.30;25.80
7341;DHT22;6870;50.944;6.932;2023-05-10T16:07:37;24.10;25.00
7341;DHT22;6870;50.944;6.932;2023-05-10T16:10:07;24.40;25.30
7341;DHT22;6870;50.944;6.932;2023-05-10T16:12:37;24.60;26.10
7341;DHT22;6870;50.944;6.932;2023-05-10T16:15:06;24.50;25.60
7341;DHT22;6870;50.944;6.932;2023-05-10T16:17:35;24.30;25.70
7341;DHT22;6870;50.944;6.932;2023-05-10T16:20:06;24.60;25.20